sensor_id;sensor_type;location;lat;lon;timestamp;pressure;altitude;pressure_sealevel;temperature;humidity
38038;BME280;23843;51.320;12.340;2023-04-28T00:01:47;100584.13;;;7.45;61.02
38038;BME280;23843;51.320;12.340;2023-04-28T00:04:13;100584.13;;;7.45;59.96
38038;BME280;23843;51.320;12.340;2023-04-28T00:06:46;100586.09;;;7.40;59.99
38038;BME280;23843;51.320;12.340;2023-04-28T00:09:15;100584.56;;;7.35;62.15
38038;BME280;23843;51.320;12.340;2023-04-28T00:11:43;100579.44;;;7.30;61.94
38038;BME280;23843;51.320;12.340;2023-04-28T00:14:10;100582.97;;;7.29;60.47
38038;BME280;23843;51.320;12.340;2023-04-28T00:16:36;100575.28;;;7.24;60.27
38038;BME280;23843;51.320;12.340;2023-04-28T00:19:01;100576.16;;;7.23;61.37
38038;BME280;23843;51.320;12.340;2023-04-28T00:21:28;100573.69;;;7.19;62.30
38038;BME280;23843;51.320;12.340;2023-04-28T00:23:53;100571.19;;;7.16;60.56
38038;BME280;23843;51.320;12.340;2023-04-28T00:26:19;100568.50;;;7.17;61.74
38038;BME280;23843;51.320;12.340;2023-04-28T00:28:45;100569.47;;;7.15;62.55
38038;BME280;23843;51.320;12.340;2023-04-28T00:31:13;100566.03;;;7.13;60.69
38038;BME280;23843;51.320;12.340;2023-04-28T00:33:39;100559.03;;;7.12;60.44
38038;BME280;23843;51.320;12.340;2023-04-28T00:36:06;100559.03;;;7.12;64.03
38038;BME280;23843;51.320;12.340;2023-04-28T00:38:32;100552.22;;;7.06;62.55
38038;BME280;23843;51.320;12.340;2023-04-28T00:40:57;100551.41;;;7.04;63.30
38038;BME280;23843;51.320;12.340;2023-04-28T00:43:23;100545.34;;;7.02;63.17
38038;BME280;23843;51.320;12.340;2023-04-28T00:45:49;100547.94;;;7.03;60.74
38038;BME280;23843;51.320;12.340;2023-04-28T00:48:16;100550.72;;;6.99;63.04
38038;BME280;23843;51.320;12.340;2023-04-28T00:50:42;100546.47;;;6.95;64.04
38038;BME280;23843;51.320;12.340;2023-04-28T00:53:09;100548.31;;;6.93;63.60
38038;BME280;23843;51.320;12.340;2023-04-28T00:55:36;100550.03;;;6.94;63.87
38038;BME280;23843;51.320;12.340;2023-04-28T00:58:02;100543.06;;;6.93;63.86
38038;BME280;23843;51.320;12.340;2023-04-28T01:00:29;100540.50;;;6.90;64.85
38038;BME280;23843;51.320;12.340;2023-04-28T01:02:55;100541.56;;;6.85;66.07
38038;BME280;23843;51.320;12.340;2023-04-28T01:05:24;100537.03;;;6.89;64.97
38038;BME280;23843;51.320;12.340;2023-04-28T01:07:50;100531.75;;;6.89;64.41
38038;BME280;23843;51.320;12.340;2023-04-28T01:10:16;100527.41;;;6.88;64.38
38038;BME280;23843;51.320;12.340;2023-04-28T01:12:41;100526.72;;;6.83;67.11
38038;BME280;23843;51.320;12.340;2023-04-28T01:15:13;100521.34;;;6.86;64.45
38038;BME280;23843;51.320;12.340;2023-04-28T01:17:40;100527.47;;;6.86;67.15
38038;BME280;23843;51.320;12.340;2023-04-28T01:20:07;100516.94;;;6.86;66.62
38038;BME280;23843;51.320;12.340;2023-04-28T01:22:34;100513.31;;;6.89;66.39
38038;BME280;23843;51.320;12.340;2023-04-28T01:25:06;100514.09;;;6.93;67.46
38038;BME280;23843;51.320;12.340;2023-04-28T01:27:52;100518.94;;;7.03;64.09
38038;BME280;23843;51.320;12.340;2023-04-28T01:30:20;100509.22;;;7.05;65.30
38038;BME280;23843;51.320;12.340;2023-04-28T01:33:05;100511.97;;;7.02;65.46
38038;BME280;23843;51.320;12.340;2023-04-28T01:35:33;100502.41;;;7.00;66.95
38038;BME280;23843;51.320;12.340;2023-04-28T01:38:02;100505.91;;;7.00;66.36
38038;BME280;23843;51.320;12.340;2023-04-28T01:40:49;100509.06;;;7.10;65.75
38038;BME280;23843;51.320;12.340;2023-04-28T01:43:34;100504.59;;;7.12;65.02
38038;BME280;23843;51.320;12.340;2023-04-28T01:46:03;100500.09;;;7.14;66.05
38038;BME280;23843;51.320;12.340;2023-04-28T01:48:30;100496.41;;;7.20;63.56
38038;BME280;23843;51.320;12.340;2023-04-28T01:51:05;100490.03;;;7.25;63.73
38038;BME280;23843;51.320;12.340;2023-04-28T01:53:47;100490.81;;;7.27;64.60
38038;BME280;23843;51.320;12.340;2023-04-28T01:56:34;100490.69;;;7.31;62.89
38038;BME280;23843;51.320;12.340;2023-04-28T01:59:20;100489.22;;;7.23;64.44
38038;BME280;23843;51.320;12.340;2023-04-28T02:02:05;100481.31;;;7.23;62.86
38038;BME280;23843;51.320;12.340;2023-04-28T02:04:36;100478.63;;;7.25;63.78
38038;BME280;23843;51.320;12.340;2023-04-28T02:07:09;100477.88;;;7.21;64.51
38038;BME280;23843;51.320;12.340;2023-04-28T02:09:35;100475.16;;;7.24;63.93
38038;BME280;23843;51.320;12.340;2023-04-28T02:12:10;100471.28;;;7.33;63.26
38038;BME280;23843;51.320;12.340;2023-04-28T02:14:45;100469.50;;;7.34;63.93
38038;BME280;23843;51.320;12.340;2023-04-28T02:17:30;100474.25;;;7.24;65.16
38038;BME280;23843;51.320;12.340;2023-04-28T02:20:12;100466.31;;;7.25;63.06
38038;BME280;23843;51.320;12.340;2023-04-28T02:22:58;100466.31;;;7.25;63.49
38038;BME280;23843;51.320;12.340;2023-04-28T02:25:36;100463.66;;;7.25;64.71
38038;BME280;23843;51.320;12.340;2023-04-28T02:28:04;100461.25;;;7.19;64.68
38038;BME280;23843;51.320;12.340;2023-04-28T02:30:49;100455.38;;;7.13;67.42
38038;BME280;23843;51.320;12.340;2023-04-28T02:33:35;100436.00;;;7.14;66.32
38038;BME280;23843;51.320;12.340;2023-04-28T02:36:05;100444.03;;;7.11;66.76
38038;BME280;23843;51.320;12.340;2023-04-28T02:38:51;100445.81;;;7.10;66.19
38038;BME280;23843;51.320;12.340;2023-04-28T02:41:36;100442.38;;;7.08;67.86
38038;BME280;23843;51.320;12.340;2023-04-28T02:44:23;100431.81;;;7.10;67.18
38038;BME280;23843;51.320;12.340;2023-04-28T02:47:09;100432.66;;;7.10;65.27
38038;BME280;23843;51.320;12.340;2023-04-28T02:49:54;100432.47;;;7.15;66.23
38038;BME280;23843;51.320;12.340;2023-04-28T02:52:40;100435.72;;;7.21;65.25
38038;BME280;23843;51.320;12.340;2023-04-28T02:55:25;100433.09;;;7.21;63.50
38038;BME280;23843;51.320;12.340;2023-04-28T02:58:11;100438.13;;;7.27;63.69
38038;BME280;23843;51.320;12.340;2023-04-28T03:00:57;100436.34;;;7.28;64.23
38038;BME280;23843;51.320;12.340;2023-04-28T03:03:43;100433.66;;;7.29;65.69
38038;BME280;23843;51.320;12.340;2023-04-28T03:06:28;100434.72;;;7.24;65.78
38038;BME280;23843;51.320;12.340;2023-04-28T03:09:14;100424.38;;;7.19;65.67
38038;BME280;23843;51.320;12.340;2023-04-28T03:11:59;100424.31;;;7.21;66.88
38038;BME280;23843;51.320;12.340;2023-04-28T03:14:39;100418.25;;;7.19;66.89
38038;BME280;23843;51.320;12.340;2023-04-28T03:17:26;100411.28;;;7.18;66.65
38038;BME280;23843;51.320;12.340;2023-04-28T03:20:11;100410.44;;;7.17;66.78
38038;BME280;23843;51.320;12.340;2023-04-28T03:22:57;100406.19;;;7.13;68.17
38038;BME280;23843;51.320;12.340;2023-04-28T03:25:42;100405.25;;;7.14;66.69
38038;BME280;23843;51.320;12.340;2023-04-28T03:28:28;100401.38;;;7.24;65.64
38038;BME280;23843;51.320;12.340;2023-04-28T03:31:13;100390.81;;;7.24;66.69
38038;BME280;23843;51.320;12.340;2023-04-28T03:33:42;100392.66;;;7.22;67.30
38038;BME280;23843;51.320;12.340;2023-04-28T03:36:08;100389.09;;;7.23;66.41
38038;BME280;23843;51.320;12.340;2023-04-28T03:38:34;100380.47;;;7.20;67.32
38038;BME280;23843;51.320;12.340;2023-04-28T03:40:59;100378.56;;;7.23;66.85
38038;BME280;23843;51.320;12.340;2023-04-28T03:43:27;100371.31;;;7.28;67.16
38038;BME280;23843;51.320;12.340;2023-04-28T03:45:53;100375.00;;;7.24;66.34
38038;BME280;23843;51.320;12.340;2023-04-28T03:48:19;100363.53;;;7.25;67.02
38038;BME280;23843;51.320;12.340;2023-04-28T03:50:46;100375.13;;;7.21;67.81
38038;BME280;23843;51.320;12.340;2023-04-28T03:53:11;100365.50;;;7.20;67.48
38038;BME280;23843;51.320;12.340;2023-04-28T03:55:37;100358.63;;;7.16;66.08
38038;BME280;23843;51.320;12.340;2023-04-28T03:58:03;100364.72;;;7.18;67.33
38038;BME280;23843;51.320;12.340;2023-04-28T04:00:41;100357.59;;;7.20;67.31
38038;BME280;23843;51.320;12.340;2023-04-28T04:03:08;100358.72;;;7.15;67.31
38038;BME280;23843;51.320;12.340;2023-04-28T04:05:34;100353.44;;;7.15;67.54
38038;BME280;23843;51.320;12.340;2023-04-28T04:08:01;100349.53;;;7.03;69.81
38038;BME280;23843;51.320;12.340;2023-04-28T04:10:45;100348.03;;;6.96;71.46
38038;BME280;23843;51.320;12.340;2023-04-28T04:13:30;100344.25;;;7.03;68.08
38038;BME280;23843;51.320;12.340;2023-04-28T04:16:16;100343.88;;;7.12;68.74
38038;BME280;23843;51.320;12.340;2023-04-28T04:19:01;100345.41;;;7.18;69.36
38038;BME280;23843;51.320;12.340;2023-04-28T04:21:46;100341.44;;;7.29;67.46
38038;BME280;23843;51.320;12.340;2023-04-28T04:24:33;100346.56;;;7.33;67.87
38038;BME280;23843;51.320;12.340;2023-04-28T04:27:19;100343.00;;;7.34;67.70
38038;BME280;23843;51.320;12.340;2023-04-28T04:30:05;100341.63;;;7.45;66.55
38038;BME280;23843;51.320;12.340;2023-04-28T04:32:51;100334.53;;;7.47;67.78
38038;BME280;23843;51.320;12.340;2023-04-28T04:35:36;100335.38;;;7.48;67.46
38038;BME280;23843;51.320;12.340;2023-04-28T04:38:22;100331.84;;;7.49;67.18
38038;BME280;23843;51.320;12.340;2023-04-28T04:41:09;100331.56;;;7.55;67.80
38038;BME280;23843;51.320;12.340;2023-04-28T04:43:54;100318.19;;;7.60;66.02
38038;BME280;23843;51.320;12.340;2023-04-28T04:46:40;100319.47;;;7.71;65.83
38038;BME280;23843;51.320;12.340;2023-04-28T04:49:25;100319.50;;;7.70;65.97
38038;BME280;23843;51.320;12.340;2023-04-28T04:52:11;100312.69;;;7.66;66.90
38038;BME280;23843;51.320;12.340;2023-04-28T04:54:56;100312.44;;;7.70;66.99
38038;BME280;23843;51.320;12.340;2023-04-28T04:57:43;100311.41;;;7.75;67.40
38038;BME280;23843;51.320;12.340;2023-04-28T05:00:28;100310.41;;;7.77;67.29
38038;BME280;23843;51.320;12.340;2023-04-28T05:03:14;100308.31;;;7.85;65.60
38038;BME280;23843;51.320;12.340;2023-04-28T05:05:59;100316.09;;;7.88;66.13
38038;BME280;23843;51.320;12.340;2023-04-28T05:08:44;100309.94;;;8.08;64.86
38038;BME280;23843;51.320;12.340;2023-04-28T05:11:30;100309.88;;;8.29;64.79
38038;BME280;23843;51.320;12.340;2023-04-28T05:14:17;100306.25;;;8.52;63.80
38038;BME280;23843;51.320;12.340;2023-04-28T05:17:02;100311.00;;;8.63;62.35
38038;BME280;23843;51.320;12.340;2023-04-28T05:19:48;100305.53;;;8.67;61.82
38038;BME280;23843;51.320;12.340;2023-04-28T05:22:33;100318.28;;;8.76;61.98
38038;BME280;23843;51.320;12.340;2023-04-28T05:25:16;100310.16;;;8.81;61.38
38038;BME280;23843;51.320;12.340;2023-04-28T05:27:57;100306.88;;;8.95;61.45
38038;BME280;23843;51.320;12.340;2023-04-28T05:30:24;100303.69;;;9.06;60.91
38038;BME280;23843;51.320;12.340;2023-04-28T05:32:50;100305.69;;;9.00;59.51
38038;BME280;23843;51.320;12.340;2023-04-28T05:35:16;100304.44;;;8.90;60.07
38038;BME280;23843;51.320;12.340;2023-04-28T05:37:41;100305.06;;;8.95;59.75
38038;BME280;23843;51.320;12.340;2023-04-28T05:40:08;100295.13;;;9.00;60.51
38038;BME280;23843;51.320;12.340;2023-04-28T05:42:34;100293.56;;;8.96;60.42
38038;BME280;23843;51.320;12.340;2023-04-28T05:45:00;100289.81;;;9.19;60.00
38038;BME280;23843;51.320;12.340;2023-04-28T05:47:27;100288.31;;;9.31;59.47
38038;BME280;23843;51.320;12.340;2023-04-28T05:49:52;100298.53;;;9.56;59.21
38038;BME280;23843;51.320;12.340;2023-04-28T05:52:18;100296.66;;;9.76;57.83
38038;BME280;23843;51.320;12.340;2023-04-28T05:54:47;100285.69;;;9.83;56.54
38038;BME280;23843;51.320;12.340;2023-04-28T05:57:13;100292.03;;;9.97;56.03
38038;BME280;23843;51.320;12.340;2023-04-28T05:59:39;100288.13;;;10.04;55.02
38038;BME280;23843;51.320;12.340;2023-04-28T06:02:07;100286.75;;;9.79;55.77
38038;BME280;23843;51.320;12.340;2023-04-28T06:04:34;100281.78;;;9.91;56.08
38038;BME280;23843;51.320;12.340;2023-04-28T06:07:00;100280.38;;;9.83;55.90
38038;BME280;23843;51.320;12.340;2023-04-28T06:09:25;100284.69;;;9.69;56.98
38038;BME280;23843;51.320;12.340;2023-04-28T06:11:51;100288.88;;;9.73;57.34
38038;BME280;23843;51.320;12.340;2023-04-28T06:14:28;100279.38;;;9.86;57.18
38038;BME280;23843;51.320;12.340;2023-04-28T06:17:42;100289.09;;;10.19;56.31
38038;BME280;23843;51.320;12.340;2023-04-28T06:20:14;100275.44;;;10.44;55.10
38038;BME280;23843;51.320;12.340;2023-04-28T06:22:43;100278.59;;;10.66;55.81
38038;BME280;23843;51.320;12.340;2023-04-28T06:25:09;100276.59;;;11.02;54.11
38038;BME280;23843;51.320;12.340;2023-04-28T06:27:34;100279.94;;;11.80;50.63
38038;BME280;23843;51.320;12.340;2023-04-28T06:30:00;100275.06;;;12.31;50.38
38038;BME280;23843;51.320;12.340;2023-04-28T06:32:32;100265.59;;;12.56;49.05
38038;BME280;23843;51.320;12.340;2023-04-28T06:34:57;100271.13;;;12.24;47.42
38038;BME280;23843;51.320;12.340;2023-04-28T06:37:24;100274.63;;;11.96;48.52
38038;BME280;23843;51.320;12.340;2023-04-28T06:39:50;100271.72;;;11.85;49.31
38038;BME280;23843;51.320;12.340;2023-04-28T06:42:16;100265.19;;;11.76;49.40
38038;BME280;23843;51.320;12.340;2023-04-28T06:44:41;100262.03;;;11.69;49.96
38038;BME280;23843;51.320;12.340;2023-04-28T06:47:07;100266.38;;;11.70;50.11
38038;BME280;23843;51.320;12.340;2023-04-28T06:49:32;100256.44;;;11.60;50.64
38038;BME280;23843;51.320;12.340;2023-04-28T06:51:58;100258.69;;;11.51;51.55
38038;BME280;23843;51.320;12.340;2023-04-28T06:54:25;100249.38;;;11.44;51.89
38038;BME280;23843;51.320;12.340;2023-04-28T06:56:50;100260.41;;;11.67;52.58
38038;BME280;23843;51.320;12.340;2023-04-28T06:59:16;100254.63;;;11.90;51.97
38038;BME280;23843;51.320;12.340;2023-04-28T07:01:41;100257.28;;;12.05;51.39
38038;BME280;23843;51.320;12.340;2023-04-28T07:04:06;100247.97;;;12.12;51.01
38038;BME280;23843;51.320;12.340;2023-04-28T07:06:32;100241.03;;;12.24;51.47
38038;BME280;23843;51.320;12.340;2023-04-28T07:08:58;100247.50;;;12.34;51.16
38038;BME280;23843;51.320;12.340;2023-04-28T07:11:25;100232.97;;;12.39;50.94
38038;BME280;23843;51.320;12.340;2023-04-28T07:13:55;100238.13;;;12.55;50.44
38038;BME280;23843;51.320;12.340;2023-04-28T07:19:54;100243.19;;;12.46;50.86
38038;BME280;23843;51.320;12.340;2023-04-28T07:22:31;100232.63;;;12.58;50.92
38038;BME280;23843;51.320;12.340;2023-04-28T07:24:57;100234.50;;;12.71;50.63
38038;BME280;23843;51.320;12.340;2023-04-28T07:27:24;100231.28;;;12.93;50.08
38038;BME280;23843;51.320;12.340;2023-04-28T07:29:49;100231.97;;;13.09;50.15
38038;BME280;23843;51.320;12.340;2023-04-28T07:32:15;100225.81;;;13.21;49.77
38038;BME280;23843;51.320;12.340;2023-04-28T07:34:40;100240.16;;;13.33;48.41
38038;BME280;23843;51.320;12.340;2023-04-28T07:37:06;100235.19;;;13.54;49.29
38038;BME280;23843;51.320;12.340;2023-04-28T07:39:32;100227.19;;;13.80;47.60
38038;BME280;23843;51.320;12.340;2023-04-28T07:41:57;100239.25;;;13.98;47.31
38038;BME280;23843;51.320;12.340;2023-04-28T07:44:24;100236.75;;;14.21;47.04
38038;BME280;23843;51.320;12.340;2023-04-28T07:46:50;100226.56;;;14.51;46.37
38038;BME280;23843;51.320;12.340;2023-04-28T07:49:16;100220.13;;;14.67;45.52
38038;BME280;23843;51.320;12.340;2023-04-28T07:51:41;100215.56;;;14.93;44.90
38038;BME280;23843;51.320;12.340;2023-04-28T07:54:07;100221.38;;;15.22;44.65
38038;BME280;23843;51.320;12.340;2023-04-28T07:56:32;100220.38;;;15.23;42.59
38038;BME280;23843;51.320;12.340;2023-04-28T07:58:58;100213.22;;;15.12;43.19
38038;BME280;23843;51.320;12.340;2023-04-28T08:01:25;100205.13;;;15.25;44.24
38038;BME280;23843;51.320;12.340;2023-04-28T08:03:50;100203.22;;;15.03;42.77
38038;BME280;23843;51.320;12.340;2023-04-28T08:06:16;100205.22;;;14.88;43.05
38038;BME280;23843;51.320;12.340;2023-04-28T08:08:41;100210.59;;;14.99;44.48
38038;BME280;23843;51.320;12.340;2023-04-28T08:11:07;100205.47;;;14.85;44.10
38038;BME280;23843;51.320;12.340;2023-04-28T08:13:32;100201.91;;;14.85;44.24
38038;BME280;23843;51.320;12.340;2023-04-28T08:15:58;100202.81;;;14.96;44.54
38038;BME280;23843;51.320;12.340;2023-04-28T08:18:25;100205.94;;;15.14;44.41
38038;BME280;23843;51.320;12.340;2023-04-28T08:20:50;100206.84;;;15.37;45.04
38038;BME280;23843;51.320;12.340;2023-04-28T08:23:16;100211.94;;;15.40;43.59
38038;BME280;23843;51.320;12.340;2023-04-28T08:25:42;100201.72;;;15.23;44.23
38038;BME280;23843;51.320;12.340;2023-04-28T08:28:07;100210.38;;;15.03;43.79
38038;BME280;23843;51.320;12.340;2023-04-28T08:30:33;100211.91;;;14.94;44.62
38038;BME280;23843;51.320;12.340;2023-04-28T08:32:58;100208.13;;;14.85;44.64
38038;BME280;23843;51.320;12.340;2023-04-28T08:35:25;100211.16;;;14.68;44.64
38038;BME280;23843;51.320;12.340;2023-04-28T08:37:51;100214.41;;;14.10;45.67
38038;BME280;23843;51.320;12.340;2023-04-28T08:40:16;100208.09;;;14.11;46.86
38038;BME280;23843;51.320;12.340;2023-04-28T08:42:43;100212.13;;;14.30;47.00
38038;BME280;23843;51.320;12.340;2023-04-28T08:45:14;100219.94;;;14.07;47.93
38038;BME280;23843;51.320;12.340;2023-04-28T08:47:40;100217.94;;;13.98;49.00
38038;BME280;23843;51.320;12.340;2023-04-28T08:50:07;100228.28;;;13.90;49.78
38038;BME280;23843;51.320;12.340;2023-04-28T08:52:34;100224.53;;;13.80;50.46
38038;BME280;23843;51.320;12.340;2023-04-28T08:55:06;100229.22;;;13.89;51.07
38038;BME280;23843;51.320;12.340;2023-04-28T08:57:34;100219.63;;;13.99;52.12
38038;BME280;23843;51.320;12.340;2023-04-28T09:00:02;100222.28;;;14.12;52.11
38038;BME280;23843;51.320;12.340;2023-04-28T09:02:27;100221.75;;;14.20;53.07
38038;BME280;23843;51.320;12.340;2023-04-28T09:04:53;100223.44;;;14.21;52.87
38038;BME280;23843;51.320;12.340;2023-04-28T09:07:19;100228.56;;;14.11;53.99
38038;BME280;23843;51.320;12.340;2023-04-28T09:09:46;100228.25;;;14.03;55.63
38038;BME280;23843;51.320;12.340;2023-04-28T09:12:12;100222.31;;;13.86;57.95
38038;BME280;23843;51.320;12.340;2023-04-28T09:14:38;100219.13;;;13.68;60.36
38038;BME280;23843;51.320;12.340;2023-04-28T09:17:10;100225.38;;;13.67;64.49
38038;BME280;23843;51.320;12.340;2023-04-28T09:19:36;100215.41;;;13.58;65.60
38038;BME280;23843;51.320;12.340;2023-04-28T09:22:04;100221.88;;;13.41;68.56
38038;BME280;23843;51.320;12.340;2023-04-28T09:24:32;100223.66;;;13.41;70.52
38038;BME280;23843;51.320;12.340;2023-04-28T09:27:00;100223.56;;;13.42;72.00
38038;BME280;23843;51.320;12.340;2023-04-28T09:29:26;100221.22;;;13.51;73.71
38038;BME280;23843;51.320;12.340;2023-04-28T09:31:52;100215.19;;;13.48;72.47
38038;BME280;23843;51.320;12.340;2023-04-28T09:34:18;100215.41;;;13.58;74.33
38038;BME280;23843;51.320;12.340;2023-04-28T09:36:44;100211.31;;;13.65;73.79
38038;BME280;23843;51.320;12.340;2023-04-28T09:39:09;100221.97;;;13.65;74.87
38038;BME280;23843;51.320;12.340;2023-04-28T09:41:36;100218.38;;;13.66;77.67
38038;BME280;23843;51.320;12.340;2023-04-28T09:44:11;100222.28;;;13.48;78.96
38038;BME280;23843;51.320;12.340;2023-04-28T09:46:36;100220.38;;;13.37;81.51
38038;BME280;23843;51.320;12.340;2023-04-28T09:49:02;100210.88;;;13.33;81.51
38038;BME280;23843;51.320;12.340;2023-04-28T09:51:28;100214.13;;;13.24;84.48
38038;BME280;23843;51.320;12.340;2023-04-28T09:53:54;100218.66;;;13.09;87.63
38038;BME280;23843;51.320;12.340;2023-04-28T09:56:26;100216.97;;;13.08;89.66
38038;BME280;23843;51.320;12.340;2023-04-28T09:58:52;100217.31;;;13.16;90.74
38038;BME280;23843;51.320;12.340;2023-04-28T10:01:20;100213.09;;;13.26;92.14
38038;BME280;23843;51.320;12.340;2023-04-28T10:03:47;100221.31;;;13.36;90.96
38038;BME280;23843;51.320;12.340;2023-04-28T10:06:13;100222.41;;;13.46;90.74
38038;BME280;23843;51.320;12.340;2023-04-28T10:08:38;100213.97;;;13.40;94.85
38038;BME280;23843;51.320;12.340;2023-04-28T10:11:04;100217.69;;;13.37;94.64
38038;BME280;23843;51.320;12.340;2023-04-28T10:13:30;100210.44;;;13.26;95.31
38038;BME280;23843;51.320;12.340;2023-04-28T10:15:56;100215.75;;;13.26;95.69
38038;BME280;23843;51.320;12.340;2023-04-28T10:18:23;100209.56;;;13.26;95.97
38038;BME280;23843;51.320;12.340;2023-04-28T10:20:52;100204.09;;;13.29;100.00
38038;BME280;23843;51.320;12.340;2023-04-28T10:23:51;100198.63;;;13.43;100.00
38038;BME280;23843;51.320;12.340;2023-04-28T10:26:20;100197.09;;;13.54;98.18
38038;BME280;23843;51.320;12.340;2023-04-28T10:28:50;100193.13;;;13.59;97.51
38038;BME280;23843;51.320;12.340;2023-04-28T10:31:17;100190.69;;;13.56;98.93
38038;BME280;23843;51.320;12.340;2023-04-28T10:33:44;100192.69;;;13.53;99.26
38038;BME280;23843;51.320;12.340;2023-04-28T10:36:10;100187.91;;;13.45;100.00
38038;BME280;23843;51.320;12.340;2023-04-28T10:39:08;100176.41;;;13.44;100.00
38038;BME280;23843;51.320;12.340;2023-04-28T10:41:34;100179.50;;;13.51;100.00
38038;BME280;23843;51.320;12.340;2023-04-28T10:43:59;100179.50;;;13.64;100.00
38038;BME280;23843;51.320;12.340;2023-04-28T10:46:25;100164.03;;;13.82;100.00
38038;BME280;23843;51.320;12.340;2023-04-28T10:48:52;100166.69;;;13.82;100.00
38038;BME280;23843;51.320;12.340;2023-04-28T10:51:28;100160.72;;;13.91;100.00
38038;BME280;23843;51.320;12.340;2023-04-28T10:54:14;100161.72;;;13.90;99.99
38038;BME280;23843;51.320;12.340;2023-04-28T10:56:41;100162.56;;;13.90;100.00
38038;BME280;23843;51.320;12.340;2023-04-28T10:59:26;100158.06;;;13.91;100.00
38038;BME280;23843;51.320;12.340;2023-04-28T11:01:52;100159.16;;;13.88;100.00
38038;BME280;23843;51.320;12.340;2023-04-28T11:04:19;100158.28;;;13.88;100.00
38038;BME280;23843;51.320;12.340;2023-04-28T11:06:45;100155.75;;;13.74;100.00
38038;BME280;23843;51.320;12.340;2023-04-28T11:12:06;100154.16;;;13.71;100.00
38038;BME280;23843;51.320;12.340;2023-04-28T11:14:33;100154.81;;;13.62;100.00
38038;BME280;23843;51.320;12.340;2023-04-28T11:17:00;100167.25;;;13.61;100.00
38038;BME280;23843;51.320;12.340;2023-04-28T11:19:29;100165.75;;;13.57;100.00
38038;BME280;23843;51.320;12.340;2023-04-28T11:21:55;100161.06;;;13.48;100.00
38038;BME280;23843;51.320;12.340;2023-04-28T11:24:22;100153.53;;;13.42;100.00
38038;BME280;23843;51.320;12.340;2023-04-28T11:26:47;100153.09;;;13.35;100.00
38038;BME280;23843;51.320;12.340;2023-04-28T11:29:13;100159.69;;;13.30;100.00
38038;BME280;23843;51.320;12.340;2023-04-28T11:31:39;100148.28;;;13.15;100.00
38038;BME280;23843;51.320;12.340;2023-04-28T11:34:06;100147.47;;;13.27;100.00
38038;BME280;23843;51.320;12.340;2023-04-28T11:36:35;100144.16;;;13.49;100.00
38038;BME280;23843;51.320;12.340;2023-04-28T11:39:02;100137.78;;;13.52;100.00
38038;BME280;23843;51.320;12.340;2023-04-28T11:41:28;100141.69;;;13.46;100.00
38038;BME280;23843;51.320;12.340;2023-04-28T11:43:53;100136.41;;;13.59;100.00
38038;BME280;23843;51.320;12.340;2023-04-28T11:46:21;100136.56;;;13.81;100.00
38038;BME280;23843;51.320;12.340;2023-04-28T11:48:47;100123.16;;;13.83;100.00
38038;BME280;23843;51.320;12.340;2023-04-28T11:51:34;100112.50;;;13.83;100.00
38038;BME280;23843;51.320;12.340;2023-04-28T11:54:00;100109.75;;;13.72;100.00
38038;BME280;23843;51.320;12.340;2023-04-28T11:56:26;100113.91;;;13.76;100.00
38038;BME280;23843;51.320;12.340;2023-04-28T11:59:10;100102.16;;;13.91;100.00
38038;BME280;23843;51.320;12.340;2023-04-28T12:01:44;100100.03;;;14.20;100.00
38038;BME280;23843;51.320;12.340;2023-04-28T12:04:10;100102.97;;;14.52;100.00
38038;BME280;23843;51.320;12.340;2023-04-28T12:06:37;100101.31;;;14.75;100.00
38038;BME280;23843;51.320;12.340;2023-04-28T12:09:14;100093.66;;;14.71;100.00
38038;BME280;23843;51.320;12.340;2023-04-28T12:11:51;100093.66;;;14.71;100.00
38038;BME280;23843;51.320;12.340;2023-04-28T12:14:16;100096.13;;;14.85;100.00
38038;BME280;23843;51.320;12.340;2023-04-28T12:16:43;100094.53;;;14.94;100.00
38038;BME280;23843;51.320;12.340;2023-04-28T12:19:09;100093.34;;;15.09;100.00
38038;BME280;23843;51.320;12.340;2023-04-28T12:21:38;100082.88;;;15.41;100.00
38038;BME280;23843;51.320;12.340;2023-04-28T12:24:18;100084.31;;;15.68;99.87
38038;BME280;23843;51.320;12.340;2023-04-28T12:26:44;100085.56;;;15.75;98.57
38038;BME280;23843;51.320;12.340;2023-04-28T12:29:33;100084.06;;;15.60;96.72
38038;BME280;23843;51.320;12.340;2023-04-28T12:31:59;100082.38;;;15.36;100.00
38038;BME280;23843;51.320;12.340;2023-04-28T12:34:24;100080.28;;;15.29;100.00
38038;BME280;23843;51.320;12.340;2023-04-28T12:36:51;100080.16;;;15.19;100.00
38038;BME280;23843;51.320;12.340;2023-04-28T12:39:17;100075.94;;;15.28;100.00
38038;BME280;23843;51.320;12.340;2023-04-28T12:41:43;100078.69;;;15.04;100.00
38038;BME280;23843;51.320;12.340;2023-04-28T12:44:08;100072.38;;;14.93;100.00
38038;BME280;23843;51.320;12.340;2023-04-28T12:46:34;100082.88;;;14.84;100.00
38038;BME280;23843;51.320;12.340;2023-04-28T12:49:00;100078.69;;;14.92;100.00
38038;BME280;23843;51.320;12.340;2023-04-28T12:51:25;100070.28;;;14.86;100.00
38038;BME280;23843;51.320;12.340;2023-04-28T12:53:53;100071.81;;;14.77;100.00
38038;BME280;23843;51.320;12.340;2023-04-28T12:56:18;100071.13;;;14.86;100.00
38038;BME280;23843;51.320;12.340;2023-04-28T12:58:44;100061.31;;;14.87;100.00
38038;BME280;23843;51.320;12.340;2023-04-28T13:01:10;100064.16;;;15.08;100.00
38038;BME280;23843;51.320;12.340;2023-04-28T13:03:36;100063.31;;;15.07;100.00
38038;BME280;23843;51.320;12.340;2023-04-28T13:06:02;100055.78;;;15.12;100.00
38038;BME280;23843;51.320;12.340;2023-04-28T13:08:28;100053.13;;;15.24;100.00
38038;BME280;23843;51.320;12.340;2023-04-28T13:10:55;100047.69;;;15.36;100.00